sensor_id;sensor_type;location;lat;lon;timestamp;P1;durP1;ratioP1;P2;durP2;ratioP2
20857;SDS011;10589;53.636;10.012;2022-07-04T03:46:07;15.63;;;11.90;;
20857;SDS011;10589;53.636;10.012;2022-07-04T03:48:33;18.07;;;13.43;;
20857;SDS011;10589;53.636;10.012;2022-07-04T03:50:59;14.63;;;12.73;;
20857;SDS011;10589;53.636;10.012;2022-07-04T03:53:24;15.70;;;12.70;;
20857;SDS011;10589;53.636;10.012;2022-07-04T03:55:51;16.87;;;12.97;;
20857;SDS011;10589;53.636;10.012;2022-07-04T03:58:17;12.83;;;11.47;;
20857;SDS011;10589;53.636;10.012;2022-07-04T04:00:42;18.43;;;13.97;;
20857;SDS011;10589;53.636;10.012;2022-07-04T04:03:09;19.87;;;12.57;;
20857;SDS011;10589;53.636;10.012;2022-07-04T04:05:55;18.00;;;13.13;;
20857;SDS011;10589;53.636;10.012;2022-07-04T04:08:20;16.00;;;12.50;;
20857;SDS011;10589;53.636;10.012;2022-07-04T04:10:46;17.13;;;12.60;;
20857;SDS011;10589;53.636;10.012;2022-07-04T04:13:12;14.00;;;10.97;;
20857;SDS011;10589;53.636;10.012;2022-07-04T04:15:37;15.40;;;12.90;;
20857;SDS011;10589;53.636;10.012;2022-07-04T04:18:03;15.33;;;13.23;;
20857;SDS011;10589;53.636;10.012;2022-07-04T04:20:29;16.73;;;13.00;;
20857;SDS011;10589;53.636;10.012;2022-07-04T04:22:54;15.67;;;12.67;;
20857;SDS011;10589;53.636;10.012;2022-07-04T04:25:20;15.80;;;12.87;;
20857;SDS011;10589;53.636;10.012;2022-07-04T04:27:45;15.07;;;12.70;;
20857;SDS011;10589;53.636;10.012;2022-07-04T04:30:11;14.07;;;12.30;;
20857;SDS011;10589;53.636;10.012;2022-07-04T04:32:37;12.57;;;11.07;;
20857;SDS011;10589;53.636;10.012;2022-07-04T04:35:02;12.07;;;10.87;;
20857;SDS011;10589;53.636;10.012;2022-07-04T04:37:28;13.50;;;11.37;;
20857;SDS011;10589;53.636;10.012;2022-07-04T04:39:54;12.33;;;10.57;;
20857;SDS011;10589;53.636;10.012;2022-07-04T04:42:19;13.47;;;10.10;;
20857;SDS011;10589;53.636;10.012;2022-07-04T04:44:45;12.00;;;10.70;;
20857;SDS011;10589;53.636;10.012;2022-07-04T04:47:11;13.00;;;9.47;;
20857;SDS011;10589;53.636;10.012;2022-07-04T04:49:36;11.47;;;8.40;;
20857;SDS011;10589;53.636;10.012;2022-07-04T04:52:02;13.03;;;9.20;;
20857;SDS011;10589;53.636;10.012;2022-07-04T04:54:28;11.60;;;8.53;;
20857;SDS011;10589;53.636;10.012;2022-07-04T04:56:54;10.00;;;8.03;;
20857;SDS011;10589;53.636;10.012;2022-07-04T04:59:20;9.63;;;7.20;;
20857;SDS011;10589;53.636;10.012;2022-07-04T05:01:45;10.80;;;7.03;;
20857;SDS011;10589;53.636;10.012;2022-07-04T05:04:11;11.27;;;6.73;;
20857;SDS011;10589;53.636;10.012;2022-07-04T05:06:39;8.50;;;6.57;;
20857;SDS011;10589;53.636;10.012;2022-07-04T05:09:05;9.10;;;5.73;;
20857;SDS011;10589;53.636;10.012;2022-07-04T05:11:31;8.77;;;5.23;;
20857;SDS011;10589;53.636;10.012;2022-07-04T05:13:56;6.80;;;5.25;;
20857;SDS011;10589;53.636;10.012;2022-07-04T05:16:22;7.20;;;5.00;;
20857;SDS011;10589;53.636;10.012;2022-07-04T05:18:48;9.47;;;4.70;;
20857;SDS011;10589;53.636;10.012;2022-07-04T05:21:13;5.53;;;4.25;;
20857;SDS011;10589;53.636;10.012;2022-07-04T05:23:39;7.67;;;3.40;;
20857;SDS011;10589;53.636;10.012;2022-07-04T05:26:05;8.13;;;3.72;;
20857;SDS011;10589;53.636;10.012;2022-07-04T05:28:30;9.30;;;3.28;;
20857;SDS011;10589;53.636;10.012;2022-07-04T05:30:56;5.18;;;2.70;;
20857;SDS011;10589;53.636;10.012;2022-07-04T05:33:21;6.88;;;2.58;;
20857;SDS011;10589;53.636;10.012;2022-07-04T05:35:47;8.50;;;2.40;;
20857;SDS011;10589;53.636;10.012;2022-07-04T05:38:14;5.80;;;2.00;;
20857;SDS011;10589;53.636;10.012;2022-07-04T05:40:39;3.00;;;1.90;;
20857;SDS011;10589;53.636;10.012;2022-07-04T05:43:05;5.30;;;2.05;;
20857;SDS011;10589;53.636;10.012;2022-07-04T05:45:30;3.90;;;1.83;;
20857;SDS011;10589;53.636;10.012;2022-07-04T05:47:56;3.80;;;1.48;;
20857;SDS011;10589;53.636;10.012;2022-07-04T05:50:22;2.95;;;1.75;;
20857;SDS011;10589;53.636;10.012;2022-07-04T05:52:47;6.22;;;1.60;;
20857;SDS011;10589;53.636;10.012;2022-07-04T05:55:13;5.45;;;1.35;;
20857;SDS011;10589;53.636;10.012;2022-07-04T05:57:39;5.13;;;1.40;;
20857;SDS011;10589;53.636;10.012;2022-07-04T06:00:05;4.20;;;1.63;;
20857;SDS011;10589;53.636;10.012;2022-07-04T06:02:31;3.25;;;1.42;;
20857;SDS011;10589;53.636;10.012;2022-07-04T06:04:57;3.38;;;1.35;;
20857;SDS011;10589;53.636;10.012;2022-07-04T06:07:23;4.55;;;1.10;;
20857;SDS011;10589;53.636;10.012;2022-07-04T06:09:48;2.72;;;1.00;;
20857;SDS011;10589;53.636;10.012;2022-07-04T06:12:14;3.60;;;1.13;;
20857;SDS011;10589;53.636;10.012;2022-07-04T06:14:39;3.55;;;1.10;;
20857;SDS011;10589;53.636;10.012;2022-07-04T06:17:05;4.80;;;1.20;;
20857;SDS011;10589;53.636;10.012;2022-07-04T06:19:31;7.47;;;1.38;;
20857;SDS011;10589;53.636;10.012;2022-07-04T06:21:56;4.28;;;1.25;;
20857;SDS011;10589;53.636;10.012;2022-07-04T06:24:22;4.10;;;1.07;;
20857;SDS011;10589;53.636;10.012;2022-07-04T06:26:48;4.80;;;1.00;;
20857;SDS011;10589;53.636;10.012;2022-07-04T06:29:13;3.55;;;1.05;;
20857;SDS011;10589;53.636;10.012;2022-07-04T06:31:39;3.15;;;1.20;;
20857;SDS011;10589;53.636;10.012;2022-07-04T06:34:05;4.25;;;0.90;;
20857;SDS011;10589;53.636;10.012;2022-07-04T06:36:49;2.00;;;0.90;;
20857;SDS011;10589;53.636;10.012;2022-07-04T06:39:14;2.58;;;0.82;;
20857;SDS011;10589;53.636;10.012;2022-07-04T06:41:40;4.75;;;1.00;;
20857;SDS011;10589;53.636;10.012;2022-07-04T06:44:05;4.28;;;1.05;;
20857;SDS011;10589;53.636;10.012;2022-07-04T06:46:31;3.88;;;1.00;;
20857;SDS011;10589;53.636;10.012;2022-07-04T06:48:56;5.78;;;1.20;;
20857;SDS011;10589;53.636;10.012;2022-07-04T06:51:22;11.77;;;1.67;;
20857;SDS011;10589;53.636;10.012;2022-07-04T06:53:48;5.00;;;1.00;;
20857;SDS011;10589;53.636;10.012;2022-07-04T06:56:15;3.15;;;0.80;;
20857;SDS011;10589;53.636;10.012;2022-07-04T06:58:41;2.97;;;1.15;;
20857;SDS011;10589;53.636;10.012;2022-07-04T07:01:07;3.80;;;1.50;;
20857;SDS011;10589;53.636;10.012;2022-07-04T07:03:33;6.35;;;1.10;;
20857;SDS011;10589;53.636;10.012;2022-07-04T07:05:59;4.80;;;1.45;;
20857;SDS011;10589;53.636;10.012;2022-07-04T07:08:26;4.32;;;1.25;;
20857;SDS011;10589;53.636;10.012;2022-07-04T07:10:52;5.32;;;1.27;;
20857;SDS011;10589;53.636;10.012;2022-07-04T07:13:18;4.70;;;1.33;;
20857;SDS011;10589;53.636;10.012;2022-07-04T07:15:43;2.00;;;1.10;;
20857;SDS011;10589;53.636;10.012;2022-07-04T07:18:09;5.10;;;0.90;;
20857;SDS011;10589;53.636;10.012;2022-07-04T07:20:35;5.85;;;0.90;;
20857;SDS011;10589;53.636;10.012;2022-07-04T07:23:03;4.90;;;1.13;;
20857;SDS011;10589;53.636;10.012;2022-07-04T07:25:29;1.95;;;0.80;;
20857;SDS011;10589;53.636;10.012;2022-07-04T07:27:56;6.50;;;1.10;;
20857;SDS011;10589;53.636;10.012;2022-07-04T07:30:21;3.33;;;1.00;;
20857;SDS011;10589;53.636;10.012;2022-07-04T07:32:47;2.78;;;0.85;;
20857;SDS011;10589;53.636;10.012;2022-07-04T07:35:13;3.75;;;1.05;;
20857;SDS011;10589;53.636;10.012;2022-07-04T07:37:40;2.35;;;0.73;;
20857;SDS011;10589;53.636;10.012;2022-07-04T07:40:06;2.97;;;0.95;;
20857;SDS011;10589;53.636;10.012;2022-07-04T07:42:33;8.38;;;0.85;;
20857;SDS011;10589;53.636;10.012;2022-07-04T07:44:59;3.33;;;0.80;;
20857;SDS011;10589;53.636;10.012;2022-07-04T07:47:24;3.88;;;0.75;;
20857;SDS011;10589;53.636;10.012;2022-07-04T07:49:50;2.60;;;0.80;;
20857;SDS011;10589;53.636;10.012;2022-07-04T07:52:16;2.67;;;1.05;;
20857;SDS011;10589;53.636;10.012;2022-07-04T07:54:42;4.00;;;0.70;;
20857;SDS011;10589;53.636;10.012;2022-07-04T07:57:08;1.77;;;0.68;;
20857;SDS011;10589;53.636;10.012;2022-07-04T07:59:33;2.50;;;0.75;;
20857;SDS011;10589;53.636;10.012;2022-07-04T08:01:59;3.42;;;0.82;;
20857;SDS011;10589;53.636;10.012;2022-07-04T08:04:25;2.10;;;0.80;;
20857;SDS011;10589;53.636;10.012;2022-07-04T08:07:00;3.85;;;0.80;;
20857;SDS011;10589;53.636;10.012;2022-07-04T08:09:26;4.82;;;0.95;;
20857;SDS011;10589;53.636;10.012;2022-07-04T08:11:52;3.22;;;0.88;;
20857;SDS011;10589;53.636;10.012;2022-07-04T08:14:18;2.85;;;0.60;;
20857;SDS011;10589;53.636;10.012;2022-07-04T08:16:43;4.63;;;0.80;;
20857;SDS011;10589;53.636;10.012;2022-07-04T08:19:09;4.35;;;0.80;;
20857;SDS011;10589;53.636;10.012;2022-07-04T08:21:36;1.98;;;0.70;;
20857;SDS011;10589;53.636;10.012;2022-07-04T08:24:01;1.65;;;0.52;;
20857;SDS011;10589;53.636;10.012;2022-07-04T08:26:27;1.80;;;0.60;;
20857;SDS011;10589;53.636;10.012;2022-07-04T08:28:53;3.28;;;0.82;;
20857;SDS011;10589;53.636;10.012;2022-07-04T08:31:22;3.15;;;0.85;;
20857;SDS011;10589;53.636;10.012;2022-07-04T08:33:49;2.42;;;0.70;;
20857;SDS011;10589;53.636;10.012;2022-07-04T08:36:14;3.00;;;0.80;;
20857;SDS011;10589;53.636;10.012;2022-07-04T08:38:40;3.53;;;0.82;;
20857;SDS011;10589;53.636;10.012;2022-07-04T08:41:05;1.77;;;0.63;;
20857;SDS011;10589;53.636;10.012;2022-07-04T08:43:31;1.83;;;0.60;;
20857;SDS011;10589;53.636;10.012;2022-07-04T08:46:05;1.13;;;0.63;;
20857;SDS011;10589;53.636;10.012;2022-07-04T08:48:31;2.10;;;0.63;;
20857;SDS011;10589;53.636;10.012;2022-07-04T08:51:04;2.95;;;0.50;;
20857;SDS011;10589;53.636;10.012;2022-07-04T08:53:38;2.28;;;0.50;;
20857;SDS011;10589;53.636;10.012;2022-07-04T08:56:05;2.70;;;0.50;;
20857;SDS011;10589;53.636;10.012;2022-07-04T08:58:51;1.60;;;0.60;;
20857;SDS011;10589;53.636;10.012;2022-07-04T09:01:19;2.08;;;0.45;;
20857;SDS011;10589;53.636;10.012;2022-07-04T09:03:45;3.03;;;0.60;;
20857;SDS011;10589;53.636;10.012;2022-07-04T09:06:12;2.33;;;0.70;;
20857;SDS011;10589;53.636;10.012;2022-07-04T09:08:38;1.92;;;0.75;;
20857;SDS011;10589;53.636;10.012;2022-07-04T09:11:04;1.10;;;0.43;;
20857;SDS011;10589;53.636;10.012;2022-07-04T09:13:31;3.00;;;0.60;;
20857;SDS011;10589;53.636;10.012;2022-07-04T09:15:57;0.88;;;0.60;;
20857;SDS011;10589;53.636;10.012;2022-07-04T09:18:25;1.98;;;0.50;;
20857;SDS011;10589;53.636;10.012;2022-07-04T09:20:52;4.70;;;0.60;;
20857;SDS011;10589;53.636;10.012;2022-07-04T09:23:20;1.30;;;0.50;;
20857;SDS011;10589;53.636;10.012;2022-07-04T09:26:13;2.25;;;0.47;;
20857;SDS011;10589;53.636;10.012;2022-07-04T09:28:36;3.88;;;0.80;;
20857;SDS011;10589;53.636;10.012;2022-07-04T09:31:12;1.20;;;0.50;;
20857;SDS011;10589;53.636;10.012;2022-07-04T09:33:46;1.85;;;0.55;;
20857;SDS011;10589;53.636;10.012;2022-07-04T09:36:18;1.42;;;0.40;;
20857;SDS011;10589;53.636;10.012;2022-07-04T09:44:44;1.05;;;0.40;;
20857;SDS011;10589;53.636;10.012;2022-07-04T09:47:21;3.75;;;0.57;;
20857;SDS011;10589;53.636;10.012;2022-07-04T09:52:24;1.60;;;0.50;;
20857;SDS011;10589;53.636;10.012;2022-07-04T09:54:50;8.18;;;0.82;;
20857;SDS011;10589;53.636;10.012;2022-07-04T09:57:16;1.10;;;0.40;;
20857;SDS011;10589;53.636;10.012;2022-07-04T09:59:47;1.63;;;0.50;;
20857;SDS011;10589;53.636;10.012;2022-07-04T10:02:12;0.82;;;0.40;;
20857;SDS011;10589;53.636;10.012;2022-07-04T10:04:46;3.05;;;0.55;;
20857;SDS011;10589;53.636;10.012;2022-07-04T10:13:06;2.13;;;0.40;;
20857;SDS011;10589;53.636;10.012;2022-07-04T10:15:33;3.78;;;0.60;;
20857;SDS011;10589;53.636;10.012;2022-07-04T10:18:02;1.20;;;0.52;;
20857;SDS011;10589;53.636;10.012;2022-07-04T10:20:29;2.53;;;0.70;;
20857;SDS011;10589;53.636;10.012;2022-07-04T10:22:56;3.17;;;0.60;;
20857;SDS011;10589;53.636;10.012;2022-07-04T10:25:22;2.60;;;0.70;;
20857;SDS011;10589;53.636;10.012;2022-07-04T10:27:48;3.17;;;0.50;;
20857;SDS011;10589;53.636;10.012;2022-07-04T10:30:17;2.78;;;0.50;;
20857;SDS011;10589;53.636;10.012;2022-07-04T10:33:06;0.80;;;0.38;;
20857;SDS011;10589;53.636;10.012;2022-07-04T10:35:48;1.70;;;0.52;;
20857;SDS011;10589;53.636;10.012;2022-07-04T10:38:29;2.55;;;0.50;;
20857;SDS011;10589;53.636;10.012;2022-07-04T10:40:56;1.48;;;0.60;;
20857;SDS011;10589;53.636;10.012;2022-07-04T10:51:42;2.55;;;0.65;;
20857;SDS011;10589;53.636;10.012;2022-07-04T10:54:09;2.58;;;0.40;;
20857;SDS011;10589;53.636;10.012;2022-07-04T10:56:50;1.35;;;0.50;;
20857;SDS011;10589;53.636;10.012;2022-07-04T10:59:29;1.98;;;0.38;;
20857;SDS011;10589;53.636;10.012;2022-07-04T11:04:52;1.42;;;0.60;;
20857;SDS011;10589;53.636;10.012;2022-07-04T11:08:03;1.15;;;0.50;;
20857;SDS011;10589;53.636;10.012;2022-07-04T11:17:57;0.52;;;0.30;;
20857;SDS011;10589;53.636;10.012;2022-07-04T11:20:28;2.15;;;0.47;;
20857;SDS011;10589;53.636;10.012;2022-07-04T11:23:05;1.92;;;0.40;;
20857;SDS011;10589;53.636;10.012;2022-07-04T11:25:42;3.20;;;0.40;;
20857;SDS011;10589;53.636;10.012;2022-07-04T11:28:22;3.85;;;0.35;;
20857;SDS011;10589;53.636;10.012;2022-07-04T11:30:52;2.58;;;0.60;;
20857;SDS011;10589;53.636;10.012;2022-07-04T11:33:20;3.33;;;0.40;;
20857;SDS011;10589;53.636;10.012;2022-07-04T11:38:45;1.38;;;0.50;;
20857;SDS011;10589;53.636;10.012;2022-07-04T11:41:22;2.20;;;0.40;;
20857;SDS011;10589;53.636;10.012;2022-07-04T11:44:08;2.20;;;0.40;;
20857;SDS011;10589;53.636;10.012;2022-07-04T11:47:07;1.95;;;0.50;;
20857;SDS011;10589;53.636;10.012;2022-07-04T11:49:33;1.88;;;0.50;;
20857;SDS011;10589;53.636;10.012;2022-07-04T11:51:59;2.33;;;0.40;;
20857;SDS011;10589;53.636;10.012;2022-07-04T11:54:25;1.25;;;0.50;;
20857;SDS011;10589;53.636;10.012;2022-07-04T11:56:50;5.03;;;0.40;;
20857;SDS011;10589;53.636;10.012;2022-07-04T11:59:16;1.73;;;0.50;;
20857;SDS011;10589;53.636;10.012;2022-07-04T12:01:43;1.50;;;0.60;;
20857;SDS011;10589;53.636;10.012;2022-07-04T12:04:19;2.38;;;0.50;;
20857;SDS011;10589;53.636;10.012;2022-07-04T12:06:46;1.25;;;0.50;;
20857;SDS011;10589;53.636;10.012;2022-07-04T12:09:13;1.60;;;0.50;;
20857;SDS011;10589;53.636;10.012;2022-07-04T12:11:56;1.67;;;0.50;;
20857;SDS011;10589;53.636;10.012;2022-07-04T12:14:23;3.03;;;0.68;;
20857;SDS011;10589;53.636;10.012;2022-07-04T12:16:49;1.83;;;0.60;;
20857;SDS011;10589;53.636;10.012;2022-07-04T12:19:56;2.05;;;0.60;;
20857;SDS011;10589;53.636;10.012;2022-07-04T12:22:26;2.47;;;0.50;;
20857;SDS011;10589;53.636;10.012;2022-07-04T12:24:53;1.27;;;0.50;;
20857;SDS011;10589;53.636;10.012;2022-07-04T12:27:18;1.50;;;0.45;;
20857;SDS011;10589;53.636;10.012;2022-07-04T12:29:51;2.67;;;0.60;;
20857;SDS011;10589;53.636;10.012;2022-07-04T12:32:17;1.10;;;0.40;;
20857;SDS011;10589;53.636;10.012;2022-07-04T12:34:43;3.33;;;0.70;;
20857;SDS011;10589;53.636;10.012;2022-07-04T12:37:13;0.93;;;0.32;;
20857;SDS011;10589;53.636;10.012;2022-07-04T12:39:41;3.15;;;0.63;;
20857;SDS011;10589;53.636;10.012;2022-07-04T12:42:18;3.03;;;0.85;;
20857;SDS011;10589;53.636;10.012;2022-07-04T12:44:46;1.98;;;0.70;;
20857;SDS011;10589;53.636;10.012;2022-07-04T12:47:16;1.25;;;0.60;;
20857;SDS011;10589;53.636;10.012;2022-07-04T12:49:43;1.58;;;0.50;;
20857;SDS011;10589;53.636;10.012;2022-07-04T12:52:14;3.17;;;0.50;;
20857;SDS011;10589;53.636;10.012;2022-07-04T12:54:41;3.15;;;0.60;;
20857;SDS011;10589;53.636;10.012;2022-07-04T12:57:11;3.22;;;0.85;;
20857;SDS011;10589;53.636;10.012;2022-07-04T12:59:39;1.15;;;0.38;;
20857;SDS011;10589;53.636;10.012;2022-07-04T13:02:07;3.67;;;0.50;;
20857;SDS011;10589;53.636;10.012;2022-07-04T13:04:34;1.77;;;0.40;;
20857;SDS011;10589;53.636;10.012;2022-07-04T13:07:00;1.27;;;0.50;;
20857;SDS011;10589;53.636;10.012;2022-07-04T13:09:41;3.50;;;0.90;;
20857;SDS011;10589;53.636;10.012;2022-07-04T13:12:10;1.48;;;0.50;;
20857;SDS011;10589;53.636;10.012;2022-07-04T13:14:49;1.10;;;0.40;;
20857;SDS011;10589;53.636;10.012;2022-07-04T13:17:16;1.77;;;0.50;;
20857;SDS011;10589;53.636;10.012;2022-07-04T13:19:42;3.13;;;0.73;;
20857;SDS011;10589;53.636;10.012;2022-07-04T13:22:08;3.30;;;0.75;;
20857;SDS011;10589;53.636;10.012;2022-07-04T13:24:33;4.03;;;0.70;;
20857;SDS011;10589;53.636;10.012;2022-07-04T13:26:59;3.20;;;1.00;;
20857;SDS011;10589;53.636;10.012;2022-07-04T13:29:25;2.28;;;0.60;;
20857;SDS011;10589;53.636;10.012;2022-07-04T13:31:50;6.22;;;0.70;;
20857;SDS011;10589;53.636;10.012;2022-07-04T13:34:16;1.50;;;0.60;;
20857;SDS011;10589;53.636;10.012;2022-07-04T13:36:42;1.98;;;0.52;;
20857;SDS011;10589;53.636;10.012;2022-07-04T13:39:09;2.50;;;0.70;;
20857;SDS011;10589;53.636;10.012;2022-07-04T13:41:35;4.13;;;0.60;;
20857;SDS011;10589;53.636;10.012;2022-07-04T13:44:02;3.05;;;0.60;;
20857;SDS011;10589;53.636;10.012;2022-07-04T13:46:28;5.28;;;0.80;;
20857;SDS011;10589;53.636;10.012;2022-07-04T13:48:54;2.08;;;0.55;;
20857;SDS011;10589;53.636;10.012;2022-07-04T13:51:20;3.22;;;0.80;;
20857;SDS011;10589;53.636;10.012;2022-07-04T13:53:46;1.58;;;0.52;;
20857;SDS011;10589;53.636;10.012;2022-07-04T13:56:12;2.13;;;0.60;;
20857;SDS011;10589;53.636;10.012;2022-07-04T13:58:41;2.50;;;0.63;;
20857;SDS011;10589;53.636;10.012;2022-07-04T14:01:06;2.20;;;0.60;;
20857;SDS011;10589;53.636;10.012;2022-07-04T14:03:32;2.92;;;0.90;;
20857;SDS011;10589;53.636;10.012;2022-07-04T14:05:57;2.75;;;0.70;;
20857;SDS011;10589;53.636;10.012;2022-07-04T14:08:23;5.30;;;0.63;;
20857;SDS011;10589;53.636;10.012;2022-07-04T14:10:49;2.88;;;0.73;;
20857;SDS011;10589;53.636;10.012;2022-07-04T14:13:14;1.85;;;0.80;;
20857;SDS011;10589;53.636;10.012;2022-07-04T14:15:40;3.00;;;0.70;;
20857;SDS011;10589;53.636;10.012;2022-07-04T14:18:06;4.47;;;1.00;;
20857;SDS011;10589;53.636;10.012;2022-07-04T14:20:36;2.63;;;0.60;;
20857;SDS011;10589;53.636;10.012;2022-07-04T14:23:01;5.13;;;0.80;;
20857;SDS011;10589;53.636;10.012;2022-07-04T14:25:27;3.22;;;0.73;;
20857;SDS011;10589;53.636;10.012;2022-07-04T14:27:52;2.22;;;0.63;;
20857;SDS011;10589;53.636;10.012;2022-07-04T14:30:18;3.70;;;0.98;;
20857;SDS011;10589;53.636;10.012;2022-07-04T14:32:44;4.10;;;0.70;;
20857;SDS011;10589;53.636;10.012;2022-07-04T14:35:09;2.80;;;0.70;;
20857;SDS011;10589;53.636;10.012;2022-07-04T14:37:35;2.28;;;0.75;;
20857;SDS011;10589;53.636;10.012;2022-07-04T14:40:01;5.25;;;0.90;;
20857;SDS011;10589;53.636;10.012;2022-07-04T14:42:26;2.63;;;0.60;;
20857;SDS011;10589;53.636;10.012;2022-07-04T14:44:52;1.80;;;0.70;;
20857;SDS011;10589;53.636;10.012;2022-07-04T14:47:19;1.92;;;0.55;;
20857;SDS011;10589;53.636;10.012;2022-07-04T14:49:44;3.45;;;0.63;;
20857;SDS011;10589;53.636;10.012;2022-07-04T14:52:10;3.30;;;0.70;;
20857;SDS011;10589;53.636;10.012;2022-07-04T14:54:36;3.17;;;0.77;;
20857;SDS011;10589;53.636;10.012;2022-07-04T14:57:01;4.22;;;0.70;;
20857;SDS011;10589;53.636;10.012;2022-07-04T14:59:28;1.85;;;0.60;;
20857;SDS011;10589;53.636;10.012;2022-07-04T15:01:53;2.60;;;0.50;;
20857;SDS011;10589;53.636;10.012;2022-07-04T15:04:19;1.90;;;0.60;;
20857;SDS011;10589;53.636;10.012;2022-07-04T15:06:45;2.00;;;0.57;;
20857;SDS011;10589;53.636;10.012;2022-07-04T15:09:10;2.88;;;0.68;;
20857;SDS011;10589;53.636;10.012;2022-07-04T15:11:36;3.55;;;0.50;;
20857;SDS011;10589;53.636;10.012;2022-07-04T15:14:02;1.25;;;0.50;;
20857;SDS011;10589;53.636;10.012;2022-07-04T15:16:27;5.65;;;0.68;;
20857;SDS011;10589;53.636;10.012;2022-07-04T15:18:53;3.65;;;0.88;;
20857;SDS011;10589;53.636;10.012;2022-07-04T15:21:19;4.47;;;0.50;;
20857;SDS011;10589;53.636;10.012;2022-07-04T15:24:04;5.13;;;0.77;;
20857;SDS011;10589;53.636;10.012;2022-07-04T15:26:36;2.38;;;0.55;;
20857;SDS011;10589;53.636;10.012;2022-07-04T15:29:06;2.55;;;0.50;;
20857;SDS011;10589;53.636;10.012;2022-07-04T15:31:31;1.40;;;0.50;;
20857;SDS011;10589;53.636;10.012;2022-07-04T15:33:57;1.63;;;0.60;;
20857;SDS011;10589;53.636;10.012;2022-07-04T15:36:22;1.33;;;0.52;;
20857;SDS011;10589;53.636;10.012;2022-07-04T15:38:48;1.40;;;0.40;;
20857;SDS011;10589;53.636;10.012;2022-07-04T15:41:14;1.35;;;0.50;;
20857;SDS011;10589;53.636;10.012;2022-07-04T15:43:41;2.00;;;0.40;;
20857;SDS011;10589;53.636;10.012;2022-07-04T15:46:07;1.88;;;0.52;;
20857;SDS011;10589;53.636;10.012;2022-07-04T15:48:33;2.45;;;0.60;;
20857;SDS011;10589;53.636;10.012;2022-07-04T15:50:58;1.50;;;0.47;;
20857;SDS011;10589;53.636;10.012;2022-07-04T15:53:24;3.35;;;0.60;;
20857;SDS011;10589;53.636;10.012;2022-07-04T15:55:50;2.30;;;0.68;;
20857;SDS011;10589;53.636;10.012;2022-07-04T15:58:15;2.38;;;0.60;;
20857;SDS011;10589;53.636;10.012;2022-07-04T16:00:41;2.90;;;0.60;;
20857;SDS011;10589;53.636;10.012;2022-07-04T16:03:07;1.95;;;0.60;;
20857;SDS011;10589;53.636;10.012;2022-07-04T16:05:32;3.65;;;0.60;;
20857;SDS011;10589;53.636;10.012;2022-07-04T16:07:58;4.25;;;0.60;;
20857;SDS011;10589;53.636;10.012;2022-07-04T16:10:24;1.00;;;0.35;;
20857;SDS011;10589;53.636;10.012;2022-07-04T16:12:49;1.92;;;0.50;;
20857;SDS011;10589;53.636;10.012;2022-07-04T16:15:15;2.55;;;0.60;;
20857;SDS011;10589;53.636;10.012;2022-07-04T16:17:41;3.30;;;0.60;;
20857;SDS011;10589;53.636;10.012;2022-07-04T16:20:07;1.33;;;0.50;;
20857;SDS011;10589;53.636;10.012;2022-07-04T16:22:34;2.47;;;0.70;;
20857;SDS011;10589;53.636;10.012;2022-07-04T16:25:00;2.13;;;0.50;;
20857;SDS011;10589;53.636;10.012;2022-07-04T16:27:27;1.83;;;0.52;;
20857;SDS011;10589;53.636;10.012;2022-07-04T16:29:52;3.92;;;0.70;;
20857;SDS011;10589;53.636;10.012;2022-07-04T16:32:18;4.03;;;0.80;;
20857;SDS011;10589;53.636;10.012;2022-07-04T16:34:44;2.70;;;0.60;;
20857;SDS011;10589;53.636;10.012;2022-07-04T16:37:09;5.10;;;0.82;;
20857;SDS011;10589;53.636;10.012;2022-07-04T16:39:36;3.42;;;0.70;;
20857;SDS011;10589;53.636;10.012;2022-07-04T16:42:01;3.38;;;0.65;;
20857;SDS011;10589;53.636;10.012;2022-07-04T16:44:27;1.13;;;0.50;;
20857;SDS011;10589;53.636;10.012;2022-07-04T16:46:53;3.72;;;0.80;;
20857;SDS011;10589;53.636;10.012;2022-07-04T16:49:19;2.28;;;0.50;;
20857;SDS011;10589;53.636;10.012;2022-07-04T16:51:44;4.68;;;0.80;;
20857;SDS011;10589;53.636;10.012;2022-07-04T16:54:11;2.70;;;0.80;;
20857;SDS011;10589;53.636;10.012;2022-07-04T16:56:37;4.50;;;0.90;;
20857;SDS011;10589;53.636;10.012;2022-07-04T16:59:03;3.35;;;1.00;;
20857;SDS011;10589;53.636;10.012;2022-07-04T17:01:29;3.45;;;0.68;;
20857;SDS011;10589;53.636;10.012;2022-07-04T17:03:55;2.80;;;0.50;;
20857;SDS011;10589;53.636;10.012;2022-07-04T17:06:21;4.55;;;0.70;;
20857;SDS011;10589;53.636;10.012;2022-07-04T17:08:46;3.95;;;1.10;;
20857;SDS011;10589;53.636;10.012;2022-07-04T17:11:12;2.22;;;0.63;;
20857;SDS011;10589;53.636;10.012;2022-07-04T17:13:45;4.30;;;0.80;;
20857;SDS011;10589;53.636;10.012;2022-07-04T17:16:11;1.38;;;0.60;;
20857;SDS011;10589;53.636;10.012;2022-07-04T17:18:37;2.60;;;0.70;;
20857;SDS011;10589;53.636;10.012;2022-07-04T17:21:03;3.40;;;0.70;;
20857;SDS011;10589;53.636;10.012;2022-07-04T17:23:29;3.20;;;0.90;;
20857;SDS011;10589;53.636;10.012;2022-07-04T17:25:55;3.45;;;0.73;;
20857;SDS011;10589;53.636;10.012;2022-07-04T17:28:20;1.27;;;0.73;;
20857;SDS011;10589;53.636;10.012;2022-07-04T17:30:46;5.03;;;0.80;;
20857;SDS011;10589;53.636;10.012;2022-07-04T17:33:12;4.30;;;0.80;;
20857;SDS011;10589;53.636;10.012;2022-07-04T17:35:37;3.47;;;0.77;;
20857;SDS011;10589;53.636;10.012;2022-07-04T17:38:03;5.13;;;1.08;;
20857;SDS011;10589;53.636;10.012;2022-07-04T17:40:29;3.47;;;0.88;;
20857;SDS011;10589;53.636;10.012;2022-07-04T17:42:55;5.28;;;0.90;;
20857;SDS011;10589;53.636;10.012;2022-07-04T17:45:20;5.03;;;1.15;;
20857;SDS011;10589;53.636;10.012;2022-07-04T17:47:46;2.08;;;0.70;;
20857;SDS011;10589;53.636;10.012;2022-07-04T17:50:11;2.72;;;1.13;;
20857;SDS011;10589;53.636;10.012;2022-07-04T17:52:37;3.58;;;0.88;;
20857;SDS011;10589;53.636;10.012;2022-07-04T17:55:03;4.97;;;0.90;;
20857;SDS011;10589;53.636;10.012;2022-07-04T17:57:29;4.80;;;0.82;;
20857;SDS011;10589;53.636;10.012;2022-07-04T17:59:54;3.38;;;0.90;;
20857;SDS011;10589;53.636;10.012;2022-07-04T18:02:20;2.60;;;0.95;;
20857;SDS011;10589;53.636;10.012;2022-07-04T18:04:45;3.28;;;0.75;;
20857;SDS011;10589;53.636;10.012;2022-07-04T18:07:11;8.98;;;1.05;;
20857;SDS011;10589;53.636;10.012;2022-07-04T18:09:38;3.20;;;0.85;;
20857;SDS011;10589;53.636;10.012;2022-07-04T18:12:03;5.07;;;0.75;;
20857;SDS011;10589;53.636;10.012;2022-07-04T18:14:29;3.55;;;0.77;;
20857;SDS011;10589;53.636;10.012;2022-07-04T18:16:55;4.47;;;0.80;;
20857;SDS011;10589;53.636;10.012;2022-07-04T18:19:21;2.53;;;0.80;;
20857;SDS011;10589;53.636;10.012;2022-07-04T18:21:47;2.65;;;0.90;;
20857;SDS011;10589;53.636;10.012;2022-07-04T18:24:13;2.65;;;0.70;;
20857;SDS011;10589;53.636;10.012;2022-07-04T18:26:39;3.13;;;1.05;;
20857;SDS011;10589;53.636;10.012;2022-07-04T18:29:05;3.40;;;0.77;;
20857;SDS011;10589;53.636;10.012;2022-07-04T18:31:31;3.00;;;1.00;;
20857;SDS011;10589;53.636;10.012;2022-07-04T18:33:56;3.95;;;0.65;;
20857;SDS011;10589;53.636;10.012;2022-07-04T18:36:22;4.15;;;1.02;;
20857;SDS011;10589;53.636;10.012;2022-07-04T18:38:48;2.97;;;0.68;;
20857;SDS011;10589;53.636;10.012;2022-07-04T18:41:14;4.45;;;0.80;;
20857;SDS011;10589;53.636;10.012;2022-07-04T18:43:58;2.35;;;0.70;;
20857;SDS011;10589;53.636;10.012;2022-07-04T18:46:24;1.77;;;0.70;;
20857;SDS011;10589;53.636;10.012;2022-07-04T18:48:50;3.50;;;0.90;;
20857;SDS011;10589;53.636;10.012;2022-07-04T18:51:16;2.88;;;0.90;;
20857;SDS011;10589;53.636;10.012;2022-07-04T18:53:43;2.88;;;0.75;;
20857;SDS011;10589;53.636;10.012;2022-07-04T18:56:09;5.03;;;0.85;;